createdAt,value
2023-01-20T00:03:53.616Z,102745.06
2023-01-20T00:09:01.625Z,102752.75
2023-01-20T00:14:08.232Z,102778.38
2023-01-20T00:19:17.917Z,102781.84
2023-01-20T00:24:23.221Z,102781.91
2023-01-20T00:29:28.396Z,102775.16
2023-01-20T00:34:33.504Z,102781.31
2023-01-20T00:39:39.495Z,102836.09
2023-01-20T00:44:45.353Z,102823.56
2023-01-20T00:49:51.258Z,102806.69
2023-01-20T00:54:56.320Z,102854.75
2023-01-20T01:00:01.748Z,102837.00
2023-01-20T01:05:09.482Z,102804.63
2023-01-20T01:10:14.579Z,102811.66
2023-01-20T01:15:19.942Z,102838.22
2023-01-20T01:20:25.703Z,102810.91
2023-01-20T01:25:30.795Z,102807.72
2023-01-20T01:30:35.761Z,102819.75
2023-01-20T01:35:40.730Z,102807.97
2023-01-20T01:40:51.242Z,102790.06
2023-01-20T01:45:57.085Z,102797.88
2023-01-20T01:51:30.051Z,102794.59
2023-01-20T01:56:36.560Z,102795.53
2023-01-20T02:01:46.681Z,102793.00
2023-01-20T02:07:01.075Z,102823.91
2023-01-20T02:12:12.468Z,102789.72
2023-01-20T02:17:23.140Z,102776.06
2023-01-20T02:22:39.189Z,102775.25
2023-01-20T02:28:06.101Z,102768.47
2023-01-20T02:33:43.054Z,102758.16
2023-01-20T02:39:03.279Z,102761.59
2023-01-20T02:44:22.154Z,102748.75
2023-01-20T02:49:46.786Z,102772.81
2023-01-20T02:54:55.411Z,102762.50
2023-01-20T03:00:11.970Z,102725.53
2023-01-20T03:05:22.630Z,102716.91
2023-01-20T03:10:31.413Z,102708.25
2023-01-20T03:15:51.337Z,102716.88
2023-01-20T03:20:57.590Z,102691.00
2023-01-20T03:26:06.389Z,102684.09
2023-01-20T03:31:26.845Z,102658.25
2023-01-20T03:36:33.524Z,102647.78
2023-01-20T03:41:56.300Z,102633.09
2023-01-20T03:47:30.759Z,102617.50
2023-01-20T03:52:52.928Z,102599.34
2023-01-20T03:57:57.438Z,102582.84
2023-01-20T04:03:06.854Z,102586.22
2023-01-20T04:08:14.003Z,102581.06
2023-01-20T04:13:18.779Z,102541.31
2023-01-20T04:18:25.354Z,102536.94
2023-01-20T04:23:47.093Z,102515.28
2023-01-20T04:28:51.684Z,102486.63
2023-01-20T04:33:57.145Z,102494.28
2023-01-20T04:39:01.680Z,102478.59
2023-01-20T04:44:06.310Z,102450.81
2023-01-20T04:49:12.350Z,102434.16
2023-01-20T04:54:17.951Z,102434.94
2023-01-20T04:59:22.569Z,102403.81
2023-01-20T05:04:27.195Z,102390.75
2023-01-20T05:09:32.902Z,102374.09
2023-01-20T05:14:37.731Z,102396.41
2023-01-20T05:19:42.299Z,102359.41
2023-01-20T05:24:46.839Z,102349.72
2023-01-20T05:29:51.449Z,102341.84
2023-01-20T05:34:55.992Z,102358.97
2023-01-20T05:40:00.668Z,102313.91
2023-01-20T05:45:05.660Z,102310.38
2023-01-20T05:50:09.974Z,102290.44
2023-01-20T05:55:14.710Z,102285.19
2023-01-20T06:00:20.069Z,102275.66
2023-01-20T06:05:24.277Z,102267.78
2023-01-20T06:10:31.586Z,102256.47
2023-01-20T06:15:36.151Z,102241.81
2023-01-20T06:20:41.922Z,102235.66
2023-01-20T06:25:46.390Z,102261.59
2023-01-20T06:30:50.971Z,102227.03
2023-01-20T06:35:56.545Z,102226.19
2023-01-20T06:41:08.260Z,102221.06
2023-01-20T06:46:17.841Z,102217.75
2023-01-20T06:51:22.830Z,102236.09
2023-01-20T06:56:27.439Z,102199.88
2023-01-20T07:01:33.316Z,102176.59
2023-01-20T07:06:40.747Z,102184.41
2023-01-20T07:11:45.326Z,102169.84
2023-01-20T07:16:50.405Z,102165.63
2023-01-20T07:21:55.153Z,102164.16
2023-01-20T07:26:59.761Z,102168.69
2023-01-20T07:32:04.256Z,102160.38
2023-01-20T07:37:08.885Z,102145.03
2023-01-20T07:42:14.575Z,102132.31
2023-01-20T07:47:21.042Z,102150.69
2023-01-20T07:52:25.668Z,102156.06
2023-01-20T07:57:34.745Z,102145.03
2023-01-20T08:02:40.229Z,102151.25
2023-01-20T08:07:44.764Z,102157.41
2023-01-20T08:12:49.302Z,102168.00
2023-01-20T08:17:58.310Z,102150.88
2023-01-20T08:23:03.418Z,102152.75
2023-01-20T08:28:08.906Z,102115.84
2023-01-20T08:33:13.946Z,102110.72
2023-01-20T08:38:21.913Z,102101.34
2023-01-20T08:43:26.999Z,102129.97
2023-01-20T08:48:31.819Z,102104.22
2023-01-20T08:53:37.215Z,102107.75
2023-01-20T08:58:42.317Z,102097.59
2023-01-20T09:03:59.272Z,102096.84
2023-01-20T09:09:09.567Z,102084.94
2023-01-20T09:14:14.381Z,102082.53
2023-01-20T09:19:20.383Z,102084.44
2023-01-20T09:24:26.522Z,102082.03
2023-01-20T09:29:31.621Z,102073.56
2023-01-20T09:34:36.950Z,102074.53
2023-01-20T09:40:00.110Z,102091.91
2023-01-20T09:45:26.049Z,102088.56
2023-01-20T09:51:06.567Z,102098.19
2023-01-20T09:56:17.829Z,102114.66
2023-01-20T10:01:41.814Z,102091.53
2023-01-20T10:07:02.230Z,102096.81
2023-01-20T10:12:35.548Z,102112.31
2023-01-20T10:18:10.583Z,102118.41
2023-01-20T10:23:30.745Z,102107.28
2023-01-20T10:28:43.039Z,102118.59
2023-01-20T10:33:49.642Z,102104.91
2023-01-20T10:39:04.071Z,102106.69
2023-01-20T10:44:15.866Z,102124.72
2023-01-20T10:49:38.215Z,102116.25
2023-01-20T10:55:20.982Z,102118.00
2023-01-20T11:00:29.083Z,102119.75
2023-01-20T11:05:42.763Z,102130.06
2023-01-20T11:10:51.144Z,102124.97
2023-01-20T11:16:04.266Z,102107.94
2023-01-20T11:21:13.396Z,102114.03
2023-01-20T11:26:37.547Z,102134.63
2023-01-20T11:31:53.080Z,102132.09
2023-01-20T11:37:06.944Z,102122.69
2023-01-20T11:42:19.282Z,102121.00
2023-01-20T11:47:30.901Z,102118.47
2023-01-20T11:52:39.863Z,102124.44
2023-01-20T11:57:53.587Z,102132.22
2023-01-20T12:03:28.638Z,102117.66
2023-01-20T12:08:36.665Z,102125.44
2023-01-20T12:14:16.589Z,102173.44
2023-01-20T12:19:28.813Z,102104.94
2023-01-20T12:25:09.399Z,102110.97
2023-01-20T12:30:40.820Z,102101.56
2023-01-20T12:36:09.239Z,102099.88
2023-01-20T12:41:46.441Z,102106.72
2023-01-20T12:47:07.864Z,102095.59
2023-01-20T12:52:25.004Z,102092.16
2023-01-20T12:57:33.349Z,102102.47
2023-01-20T13:02:45.030Z,102100.75
2023-01-20T13:08:26.475Z,102099.03
2023-01-20T13:13:56.824Z,102095.63
2023-01-20T13:19:19.148Z,102075.91
2023-01-20T13:24:30.552Z,102086.19
2023-01-20T13:29:59.332Z,102074.22
2023-01-20T13:35:27.399Z,102074.22
2023-01-20T13:40:38.430Z,102064.81
2023-01-20T13:45:44.583Z,102052.84
2023-01-20T13:50:51.568Z,102046.84
2023-01-20T13:55:59.384Z,102047.69
2023-01-20T14:01:10.347Z,102039.13
2023-01-20T14:06:15.703Z,102027.19
2023-01-20T14:11:24.683Z,102027.19
2023-01-20T14:16:29.727Z,102025.47
2023-01-20T14:21:42.825Z,102031.44
2023-01-20T14:26:48.053Z,102008.38
2023-01-20T14:31:53.084Z,102016.94
2023-01-20T14:37:19.747Z,102013.50
2023-01-20T14:42:27.094Z,102018.59
2023-01-20T14:47:34.996Z,102023.75
2023-01-20T14:52:40.797Z,102016.03
2023-01-20T14:57:46.210Z,102003.25
2023-01-20T15:03:09.243Z,101987.84
2023-01-20T15:08:26.445Z,101981.84
2023-01-20T15:13:32.711Z,102024.53
2023-01-20T15:18:37.670Z,101982.69
2023-01-20T15:23:45.099Z,101987.78
2023-01-20T15:28:50.755Z,101974.16
2023-01-20T15:33:56.606Z,101983.53
2023-01-20T15:39:01.704Z,101966.41
2023-01-20T15:44:06.717Z,101966.41
2023-01-20T15:49:16.285Z,101968.97
2023-01-20T15:54:21.481Z,101963.81
2023-01-20T15:59:27.205Z,101947.59
2023-01-20T16:04:32.967Z,101922.84
2023-01-20T16:09:40.049Z,101927.16
2023-01-20T16:14:45.923Z,101963.00
2023-01-20T16:19:51.731Z,101922.91
2023-01-20T16:24:56.578Z,101922.91
2023-01-20T16:30:01.315Z,101910.97
2023-01-20T16:35:06.624Z,101911.84
2023-01-20T16:40:20.205Z,101899.03
2023-01-20T16:45:31.788Z,101899.03
2023-01-20T16:50:37.334Z,101899.03
2023-01-20T16:55:46.291Z,101919.50
2023-01-20T17:00:51.085Z,101887.09
2023-01-20T17:05:58.652Z,101915.25
2023-01-20T17:11:03.166Z,101924.63
2023-01-20T17:16:08.163Z,101881.09
2023-01-20T17:21:14.752Z,101875.13
2023-01-20T17:26:21.028Z,101864.03
2023-01-20T17:31:26.375Z,101876.84
2023-01-20T17:36:32.736Z,101888.78
2023-01-20T17:41:37.331Z,101868.28
2023-01-20T17:46:42.370Z,101863.16
2023-01-20T17:51:46.985Z,101887.94
2023-01-20T17:56:51.642Z,101853.78
2023-01-20T18:01:57.414Z,101840.94
2023-01-20T18:07:01.978Z,101839.25
2023-01-20T18:12:06.871Z,101847.75
2023-01-20T18:17:11.444Z,101841.78
2023-01-20T18:22:17.291Z,101843.50
2023-01-20T18:27:21.914Z,101834.13
2023-01-20T18:32:28.743Z,101836.66
2023-01-20T18:37:34.286Z,101830.69
2023-01-20T18:42:38.868Z,101823.84
2023-01-20T18:47:43.510Z,101830.69
2023-01-20T18:52:48.087Z,101821.28
2023-01-20T18:57:52.689Z,101812.75
2023-01-20T19:02:57.781Z,101806.78
2023-01-20T19:08:02.289Z,101802.53
2023-01-20T19:13:07.915Z,101807.63
2023-01-20T19:18:11.986Z,101802.50
2023-01-20T19:23:16.034Z,101788.84
2023-01-20T19:28:21.316Z,101784.53
2023-01-20T19:33:25.899Z,101783.66
2023-01-20T19:38:32.587Z,101783.66
2023-01-20T19:43:38.229Z,101778.53
2023-01-20T19:48:43.684Z,101763.19
2023-01-20T19:53:49.756Z,101761.44
2023-01-20T19:58:56.405Z,101769.13
2023-01-20T20:04:05.556Z,101801.53
2023-01-20T20:09:13.769Z,101753.81
2023-01-20T20:14:22.043Z,101761.50
2023-01-20T20:19:27.930Z,101760.63
2023-01-20T20:24:32.468Z,101757.25
2023-01-20T20:29:37.169Z,101746.16
2023-01-20T20:34:41.877Z,101741.88
2023-01-20T20:39:47.960Z,101745.28
2023-01-20T20:44:52.553Z,101743.56
2023-01-20T20:49:58.211Z,101742.69
2023-01-20T20:55:02.817Z,101732.47
2023-01-20T21:00:08.550Z,101735.88
2023-01-20T21:05:13.127Z,101732.44
2023-01-20T21:10:18.727Z,101726.50
2023-01-20T21:15:23.499Z,101767.38
2023-01-20T21:20:28.135Z,101730.72
2023-01-20T21:25:34.099Z,101729.03
2023-01-20T21:30:40.867Z,101729.06
2023-01-20T21:35:47.351Z,101735.00
2023-01-20T21:41:04.591Z,101739.25
2023-01-20T21:46:09.458Z,101737.53
2023-01-20T21:51:50.813Z,101764.78
2023-01-20T21:56:55.363Z,101737.50
2023-01-20T22:02:00.170Z,101741.75
2023-01-20T22:07:04.815Z,101730.69
2023-01-20T22:12:10.220Z,101734.94
2023-01-20T22:17:14.875Z,101728.13
2023-01-20T22:22:21.136Z,101730.66
2023-01-20T22:27:26.669Z,101737.47
2023-01-20T22:32:31.461Z,101740.00
2023-01-20T22:37:36.028Z,101760.41
2023-01-20T22:42:40.614Z,101730.59
2023-01-20T22:47:45.268Z,101791.03
2023-01-20T22:52:50.339Z,101733.13
2023-01-20T22:57:55.106Z,101755.25
2023-01-20T23:02:59.835Z,101760.31
2023-01-20T23:08:04.405Z,101732.22
2023-01-20T23:13:09.150Z,101733.88
2023-01-20T23:18:14.095Z,101736.44
2023-01-20T23:23:18.873Z,101747.44
2023-01-20T23:28:23.378Z,101767.88
2023-01-20T23:33:28.325Z,101750.00
2023-01-20T23:38:33.352Z,101757.63
2023-01-20T23:43:38.028Z,101751.66
2023-01-20T23:48:42.690Z,101780.59
2023-01-20T23:53:47.226Z,101758.50
2023-01-20T23:58:52.619Z,101750.84
